sensor_id;sensor_type;location;lat;lon;timestamp;P1;durP1;ratioP1;P2;durP2;ratioP2
44270;SDS011;29963;44.594;11.368;2023-04-16T00:01:27;7.38;;;3.65;;
44270;SDS011;29963;44.594;11.368;2023-04-16T00:03:53;7.50;;;4.68;;
44270;SDS011;29963;44.594;11.368;2023-04-16T00:06:19;6.57;;;3.25;;
44270;SDS011;29963;44.594;11.368;2023-04-16T00:08:45;9.02;;;3.47;;
44270;SDS011;29963;44.594;11.368;2023-04-16T00:11:10;5.47;;;3.80;;
44270;SDS011;29963;44.594;11.368;2023-04-16T00:13:36;5.75;;;3.70;;
44270;SDS011;29963;44.594;11.368;2023-04-16T00:16:02;6.53;;;3.60;;
44270;SDS011;29963;44.594;11.368;2023-04-16T00:18:27;7.53;;;3.95;;
44270;SDS011;29963;44.594;11.368;2023-04-16T00:20:53;5.85;;;3.60;;
44270;SDS011;29963;44.594;11.368;2023-04-16T00:23:19;5.15;;;3.45;;
44270;SDS011;29963;44.594;11.368;2023-04-16T00:25:45;5.35;;;3.53;;
44270;SDS011;29963;44.594;11.368;2023-04-16T00:28:10;3.70;;;3.22;;
44270;SDS011;29963;44.594;11.368;2023-04-16T00:30:36;4.95;;;3.20;;
44270;SDS011;29963;44.594;11.368;2023-04-16T00:33:02;5.50;;;3.47;;
44270;SDS011;29963;44.594;11.368;2023-04-16T00:35:28;7.95;;;4.10;;
44270;SDS011;29963;44.594;11.368;2023-04-16T00:37:54;4.68;;;4.18;;
44270;SDS011;29963;44.594;11.368;2023-04-16T00:40:20;4.20;;;3.80;;
44270;SDS011;29963;44.594;11.368;2023-04-16T00:42:45;8.50;;;3.80;;
44270;SDS011;29963;44.594;11.368;2023-04-16T00:45:11;6.82;;;4.15;;
44270;SDS011;29963;44.594;11.368;2023-04-16T00:47:37;5.90;;;4.65;;
44270;SDS011;29963;44.594;11.368;2023-04-16T00:50:03;10.00;;;4.63;;
44270;SDS011;29963;44.594;11.368;2023-04-16T00:52:30;4.93;;;4.00;;
44270;SDS011;29963;44.594;11.368;2023-04-16T00:54:56;5.93;;;4.20;;
44270;SDS011;29963;44.594;11.368;2023-04-16T00:57:23;7.93;;;3.67;;
44270;SDS011;29963;44.594;11.368;2023-04-16T00:59:48;5.93;;;5.35;;
44270;SDS011;29963;44.594;11.368;2023-04-16T01:02:15;5.97;;;4.28;;
44270;SDS011;29963;44.594;11.368;2023-04-16T01:04:41;5.10;;;4.20;;
44270;SDS011;29963;44.594;11.368;2023-04-16T01:07:06;8.35;;;4.05;;
44270;SDS011;29963;44.594;11.368;2023-04-16T01:09:32;5.38;;;4.13;;
44270;SDS011;29963;44.594;11.368;2023-04-16T01:11:58;4.45;;;3.83;;
44270;SDS011;29963;44.594;11.368;2023-04-16T01:14:23;8.32;;;4.38;;
44270;SDS011;29963;44.594;11.368;2023-04-16T01:16:49;7.35;;;4.25;;
44270;SDS011;29963;44.594;11.368;2023-04-16T01:19:14;5.05;;;3.90;;
44270;SDS011;29963;44.594;11.368;2023-04-16T01:21:40;6.53;;;4.40;;
44270;SDS011;29963;44.594;11.368;2023-04-16T01:24:05;5.20;;;3.72;;
44270;SDS011;29963;44.594;11.368;2023-04-16T01:26:31;6.18;;;4.30;;
44270;SDS011;29963;44.594;11.368;2023-04-16T01:28:58;4.80;;;4.22;;
44270;SDS011;29963;44.594;11.368;2023-04-16T01:31:24;7.40;;;3.90;;
44270;SDS011;29963;44.594;11.368;2023-04-16T01:33:49;8.90;;;4.70;;
44270;SDS011;29963;44.594;11.368;2023-04-16T01:36:15;7.78;;;4.30;;
44270;SDS011;29963;44.594;11.368;2023-04-16T01:38:41;9.13;;;4.65;;
44270;SDS011;29963;44.594;11.368;2023-04-16T01:41:06;5.85;;;4.30;;
44270;SDS011;29963;44.594;11.368;2023-04-16T01:43:32;8.27;;;4.97;;
44270;SDS011;29963;44.594;11.368;2023-04-16T01:46:14;6.43;;;4.15;;
44270;SDS011;29963;44.594;11.368;2023-04-16T01:48:42;5.90;;;4.00;;
44270;SDS011;29963;44.594;11.368;2023-04-16T01:51:08;5.53;;;4.57;;
44270;SDS011;29963;44.594;11.368;2023-04-16T01:53:34;4.88;;;4.32;;
44270;SDS011;29963;44.594;11.368;2023-04-16T01:56:00;8.15;;;4.88;;
44270;SDS011;29963;44.594;11.368;2023-04-16T01:58:29;6.80;;;4.63;;
44270;SDS011;29963;44.594;11.368;2023-04-16T02:00:56;4.57;;;3.97;;
44270;SDS011;29963;44.594;11.368;2023-04-16T02:03:22;7.78;;;4.60;;
44270;SDS011;29963;44.594;11.368;2023-04-16T02:05:49;8.73;;;4.53;;
44270;SDS011;29963;44.594;11.368;2023-04-16T02:08:15;7.75;;;4.22;;
44270;SDS011;29963;44.594;11.368;2023-04-16T02:10:41;5.05;;;4.03;;
44270;SDS011;29963;44.594;11.368;2023-04-16T02:13:10;4.97;;;4.40;;
44270;SDS011;29963;44.594;11.368;2023-04-16T02:15:36;5.20;;;4.05;;
44270;SDS011;29963;44.594;11.368;2023-04-16T02:18:01;6.05;;;4.03;;
44270;SDS011;29963;44.594;11.368;2023-04-16T02:20:27;5.50;;;4.30;;
44270;SDS011;29963;44.594;11.368;2023-04-16T02:22:53;6.18;;;4.47;;
44270;SDS011;29963;44.594;11.368;2023-04-16T02:25:18;7.15;;;4.60;;
44270;SDS011;29963;44.594;11.368;2023-04-16T02:27:44;6.53;;;4.75;;
44270;SDS011;29963;44.594;11.368;2023-04-16T02:30:09;8.80;;;4.25;;
44270;SDS011;29963;44.594;11.368;2023-04-16T02:32:35;5.82;;;4.30;;
44270;SDS011;29963;44.594;11.368;2023-04-16T02:35:01;6.85;;;4.70;;
44270;SDS011;29963;44.594;11.368;2023-04-16T02:37:28;4.32;;;3.92;;
44270;SDS011;29963;44.594;11.368;2023-04-16T02:39:53;5.90;;;4.53;;
44270;SDS011;29963;44.594;11.368;2023-04-16T02:42:19;6.13;;;4.43;;
44270;SDS011;29963;44.594;11.368;2023-04-16T02:44:45;6.03;;;4.82;;
44270;SDS011;29963;44.594;11.368;2023-04-16T02:47:10;6.10;;;5.28;;
44270;SDS011;29963;44.594;11.368;2023-04-16T02:49:36;7.72;;;4.95;;
44270;SDS011;29963;44.594;11.368;2023-04-16T02:52:01;4.68;;;4.32;;
44270;SDS011;29963;44.594;11.368;2023-04-16T02:54:27;9.73;;;5.15;;
44270;SDS011;29963;44.594;11.368;2023-04-16T02:56:53;7.43;;;4.72;;
44270;SDS011;29963;44.594;11.368;2023-04-16T02:59:18;7.60;;;4.50;;
44270;SDS011;29963;44.594;11.368;2023-04-16T03:01:44;5.13;;;4.47;;
44270;SDS011;29963;44.594;11.368;2023-04-16T03:04:09;8.75;;;5.07;;
44270;SDS011;29963;44.594;11.368;2023-04-16T03:06:35;7.53;;;4.90;;
44270;SDS011;29963;44.594;11.368;2023-04-16T03:09:01;8.88;;;4.70;;
44270;SDS011;29963;44.594;11.368;2023-04-16T03:11:26;6.28;;;5.00;;
44270;SDS011;29963;44.594;11.368;2023-04-16T03:13:52;8.23;;;4.90;;
44270;SDS011;29963;44.594;11.368;2023-04-16T03:16:17;8.13;;;5.28;;
44270;SDS011;29963;44.594;11.368;2023-04-16T03:18:43;9.25;;;4.85;;
44270;SDS011;29963;44.594;11.368;2023-04-16T03:21:09;5.97;;;4.93;;
44270;SDS011;29963;44.594;11.368;2023-04-16T03:23:34;9.32;;;5.38;;
44270;SDS011;29963;44.594;11.368;2023-04-16T03:26:00;6.82;;;5.47;;
44270;SDS011;29963;44.594;11.368;2023-04-16T03:28:26;9.30;;;5.20;;
44270;SDS011;29963;44.594;11.368;2023-04-16T03:30:52;7.80;;;5.30;;
44270;SDS011;29963;44.594;11.368;2023-04-16T03:33:18;8.32;;;5.25;;
44270;SDS011;29963;44.594;11.368;2023-04-16T03:35:44;7.25;;;5.22;;
44270;SDS011;29963;44.594;11.368;2023-04-16T03:38:10;6.40;;;5.43;;
44270;SDS011;29963;44.594;11.368;2023-04-16T03:40:36;7.32;;;4.75;;
44270;SDS011;29963;44.594;11.368;2023-04-16T03:43:02;7.80;;;5.47;;
44270;SDS011;29963;44.594;11.368;2023-04-16T03:45:28;5.40;;;4.55;;
44270;SDS011;29963;44.594;11.368;2023-04-16T03:47:54;6.38;;;4.82;;
44270;SDS011;29963;44.594;11.368;2023-04-16T03:50:19;5.75;;;5.10;;
44270;SDS011;29963;44.594;11.368;2023-04-16T03:52:45;9.82;;;5.60;;
44270;SDS011;29963;44.594;11.368;2023-04-16T03:55:13;12.75;;;6.35;;
44270;SDS011;29963;44.594;11.368;2023-04-16T03:57:39;7.57;;;5.38;;
44270;SDS011;29963;44.594;11.368;2023-04-16T04:00:05;6.07;;;5.47;;
44270;SDS011;29963;44.594;11.368;2023-04-16T04:02:31;6.45;;;5.72;;
44270;SDS011;29963;44.594;11.368;2023-04-16T04:04:57;6.07;;;5.55;;
44270;SDS011;29963;44.594;11.368;2023-04-16T04:07:22;5.20;;;4.80;;
44270;SDS011;29963;44.594;11.368;2023-04-16T04:09:48;6.30;;;5.57;;
44270;SDS011;29963;44.594;11.368;2023-04-16T04:12:14;7.82;;;5.57;;
44270;SDS011;29963;44.594;11.368;2023-04-16T04:14:39;11.50;;;5.15;;
44270;SDS011;29963;44.594;11.368;2023-04-16T04:17:05;6.18;;;5.68;;
44270;SDS011;29963;44.594;11.368;2023-04-16T04:19:32;9.85;;;5.88;;
44270;SDS011;29963;44.594;11.368;2023-04-16T04:21:58;7.75;;;6.25;;
44270;SDS011;29963;44.594;11.368;2023-04-16T04:24:23;6.78;;;5.75;;
44270;SDS011;29963;44.594;11.368;2023-04-16T04:26:49;7.30;;;5.53;;
44270;SDS011;29963;44.594;11.368;2023-04-16T04:29:14;6.72;;;6.13;;
44270;SDS011;29963;44.594;11.368;2023-04-16T04:31:40;6.63;;;6.00;;
44270;SDS011;29963;44.594;11.368;2023-04-16T04:34:06;9.02;;;6.53;;
44270;SDS011;29963;44.594;11.368;2023-04-16T04:36:31;6.68;;;6.07;;
44270;SDS011;29963;44.594;11.368;2023-04-16T04:38:57;6.53;;;5.32;;
44270;SDS011;29963;44.594;11.368;2023-04-16T04:41:23;7.10;;;6.40;;
44270;SDS011;29963;44.594;11.368;2023-04-16T04:43:50;7.70;;;6.43;;
44270;SDS011;29963;44.594;11.368;2023-04-16T04:46:16;7.97;;;5.78;;
44270;SDS011;29963;44.594;11.368;2023-04-16T04:48:41;6.22;;;5.63;;
44270;SDS011;29963;44.594;11.368;2023-04-16T04:51:07;6.78;;;5.78;;
44270;SDS011;29963;44.594;11.368;2023-04-16T04:53:32;8.10;;;6.25;;
44270;SDS011;29963;44.594;11.368;2023-04-16T04:55:58;8.68;;;6.03;;
44270;SDS011;29963;44.594;11.368;2023-04-16T04:58:24;7.78;;;5.28;;
44270;SDS011;29963;44.594;11.368;2023-04-16T05:00:49;7.65;;;6.18;;
44270;SDS011;29963;44.594;11.368;2023-04-16T05:03:18;6.70;;;5.60;;
44270;SDS011;29963;44.594;11.368;2023-04-16T05:05:45;6.20;;;5.60;;
44270;SDS011;29963;44.594;11.368;2023-04-16T05:08:11;6.35;;;5.85;;
44270;SDS011;29963;44.594;11.368;2023-04-16T05:10:37;6.05;;;5.55;;
44270;SDS011;29963;44.594;11.368;2023-04-16T05:13:02;6.60;;;6.00;;
44270;SDS011;29963;44.594;11.368;2023-04-16T05:15:28;8.00;;;6.03;;
44270;SDS011;29963;44.594;11.368;2023-04-16T05:17:53;7.72;;;6.45;;
44270;SDS011;29963;44.594;11.368;2023-04-16T05:20:20;7.20;;;5.82;;
44270;SDS011;29963;44.594;11.368;2023-04-16T05:22:48;11.93;;;6.28;;
44270;SDS011;29963;44.594;11.368;2023-04-16T05:25:16;6.18;;;5.50;;
44270;SDS011;29963;44.594;11.368;2023-04-16T05:27:42;5.35;;;4.85;;
44270;SDS011;29963;44.594;11.368;2023-04-16T05:30:08;7.38;;;5.60;;
44270;SDS011;29963;44.594;11.368;2023-04-16T05:32:34;10.15;;;5.68;;
44270;SDS011;29963;44.594;11.368;2023-04-16T05:35:00;6.32;;;5.63;;
44270;SDS011;29963;44.594;11.368;2023-04-16T05:37:26;6.75;;;5.10;;
44270;SDS011;29963;44.594;11.368;2023-04-16T05:39:52;5.63;;;4.95;;
44270;SDS011;29963;44.594;11.368;2023-04-16T05:42:18;5.97;;;5.43;;
44270;SDS011;29963;44.594;11.368;2023-04-16T05:44:44;9.75;;;5.85;;
44270;SDS011;29963;44.594;11.368;2023-04-16T05:47:10;8.02;;;5.43;;
44270;SDS011;29963;44.594;11.368;2023-04-16T05:49:35;5.88;;;5.32;;
44270;SDS011;29963;44.594;11.368;2023-04-16T05:52:01;8.60;;;5.50;;
44270;SDS011;29963;44.594;11.368;2023-04-16T05:54:28;6.55;;;5.00;;
44270;SDS011;29963;44.594;11.368;2023-04-16T05:56:53;6.63;;;4.80;;
44270;SDS011;29963;44.594;11.368;2023-04-16T05:59:19;5.57;;;4.88;;
44270;SDS011;29963;44.594;11.368;2023-04-16T06:01:44;5.00;;;4.50;;
44270;SDS011;29963;44.594;11.368;2023-04-16T06:04:10;5.78;;;5.22;;
44270;SDS011;29963;44.594;11.368;2023-04-16T06:06:36;5.53;;;4.60;;
44270;SDS011;29963;44.594;11.368;2023-04-16T06:09:01;6.43;;;5.20;;
44270;SDS011;29963;44.594;11.368;2023-04-16T06:11:31;6.65;;;4.78;;
44270;SDS011;29963;44.594;11.368;2023-04-16T06:13:56;5.20;;;4.70;;
44270;SDS011;29963;44.594;11.368;2023-04-16T06:16:22;4.85;;;4.45;;
44270;SDS011;29963;44.594;11.368;2023-04-16T06:18:47;6.30;;;4.10;;
44270;SDS011;29963;44.594;11.368;2023-04-16T06:21:13;5.57;;;5.07;;
44270;SDS011;29963;44.594;11.368;2023-04-16T06:23:39;5.53;;;4.75;;
44270;SDS011;29963;44.594;11.368;2023-04-16T06:26:05;6.43;;;4.82;;
44270;SDS011;29963;44.594;11.368;2023-04-16T06:28:30;7.32;;;4.55;;
44270;SDS011;29963;44.594;11.368;2023-04-16T06:30:56;7.43;;;4.72;;
44270;SDS011;29963;44.594;11.368;2023-04-16T06:33:22;4.90;;;4.28;;
44270;SDS011;29963;44.594;11.368;2023-04-16T06:35:47;7.03;;;4.93;;
44270;SDS011;29963;44.594;11.368;2023-04-16T06:38:13;5.63;;;4.28;;
44270;SDS011;29963;44.594;11.368;2023-04-16T06:40:39;5.43;;;4.22;;
44270;SDS011;29963;44.594;11.368;2023-04-16T06:43:04;5.53;;;3.85;;
44270;SDS011;29963;44.594;11.368;2023-04-16T06:45:30;3.97;;;3.67;;
44270;SDS011;29963;44.594;11.368;2023-04-16T06:47:56;4.10;;;3.75;;
44270;SDS011;29963;44.594;11.368;2023-04-16T06:50:23;7.57;;;4.40;;
44270;SDS011;29963;44.594;11.368;2023-04-16T06:52:50;5.47;;;3.70;;
44270;SDS011;29963;44.594;11.368;2023-04-16T06:55:16;5.68;;;3.63;;
44270;SDS011;29963;44.594;11.368;2023-04-16T06:57:42;3.95;;;3.58;;
44270;SDS011;29963;44.594;11.368;2023-04-16T07:00:08;4.13;;;3.72;;
44270;SDS011;29963;44.594;11.368;2023-04-16T07:02:34;4.57;;;4.10;;
44270;SDS011;29963;44.594;11.368;2023-04-16T07:04:59;4.82;;;3.88;;
44270;SDS011;29963;44.594;11.368;2023-04-16T07:07:25;5.28;;;3.90;;
44270;SDS011;29963;44.594;11.368;2023-04-16T07:09:51;3.95;;;3.65;;
44270;SDS011;29963;44.594;11.368;2023-04-16T07:12:16;5.05;;;4.00;;
44270;SDS011;29963;44.594;11.368;2023-04-16T07:14:42;7.15;;;4.20;;
44270;SDS011;29963;44.594;11.368;2023-04-16T07:17:08;3.78;;;3.47;;
44270;SDS011;29963;44.594;11.368;2023-04-16T07:19:33;4.43;;;3.67;;
44270;SDS011;29963;44.594;11.368;2023-04-16T07:21:59;4.80;;;3.13;;
44270;SDS011;29963;44.594;11.368;2023-04-16T07:24:25;5.68;;;3.33;;
44270;SDS011;29963;44.594;11.368;2023-04-16T07:26:51;4.55;;;4.10;;
44270;SDS011;29963;44.594;11.368;2023-04-16T07:29:16;3.70;;;3.40;;
44270;SDS011;29963;44.594;11.368;2023-04-16T07:31:42;4.65;;;4.13;;
44270;SDS011;29963;44.594;11.368;2023-04-16T07:34:09;4.40;;;3.15;;
44270;SDS011;29963;44.594;11.368;2023-04-16T07:36:34;4.80;;;4.30;;
44270;SDS011;29963;44.594;11.368;2023-04-16T07:39:00;4.10;;;3.70;;
44270;SDS011;29963;44.594;11.368;2023-04-16T07:41:26;4.10;;;3.70;;
44270;SDS011;29963;44.594;11.368;2023-04-16T07:43:53;5.97;;;3.90;;
44270;SDS011;29963;44.594;11.368;2023-04-16T07:46:19;2.63;;;2.42;;
44270;SDS011;29963;44.594;11.368;2023-04-16T07:48:44;4.40;;;2.78;;
44270;SDS011;29963;44.594;11.368;2023-04-16T07:51:10;3.00;;;2.80;;
44270;SDS011;29963;44.594;11.368;2023-04-16T07:53:36;4.38;;;3.45;;
44270;SDS011;29963;44.594;11.368;2023-04-16T07:56:01;3.95;;;3.40;;
44270;SDS011;29963;44.594;11.368;2023-04-16T07:58:27;3.25;;;2.83;;
44270;SDS011;29963;44.594;11.368;2023-04-16T08:00:53;3.22;;;2.90;;
44270;SDS011;29963;44.594;11.368;2023-04-16T08:03:18;3.58;;;3.28;;
44270;SDS011;29963;44.594;11.368;2023-04-16T08:05:44;3.92;;;2.97;;
44270;SDS011;29963;44.594;11.368;2023-04-16T08:08:09;6.35;;;3.03;;
44270;SDS011;29963;44.594;11.368;2023-04-16T08:10:35;3.80;;;3.10;;
44270;SDS011;29963;44.594;11.368;2023-04-16T08:13:01;6.05;;;2.53;;
44270;SDS011;29963;44.594;11.368;2023-04-16T08:15:26;4.10;;;2.70;;
44270;SDS011;29963;44.594;11.368;2023-04-16T08:17:52;3.35;;;2.65;;
44270;SDS011;29963;44.594;11.368;2023-04-16T08:20:17;4.38;;;2.63;;
44270;SDS011;29963;44.594;11.368;2023-04-16T08:22:43;3.97;;;3.08;;
44270;SDS011;29963;44.594;11.368;2023-04-16T08:25:10;3.40;;;2.83;;
44270;SDS011;29963;44.594;11.368;2023-04-16T08:27:36;4.93;;;3.10;;
44270;SDS011;29963;44.594;11.368;2023-04-16T08:30:02;3.35;;;3.03;;
44270;SDS011;29963;44.594;11.368;2023-04-16T08:32:28;6.85;;;2.78;;
44270;SDS011;29963;44.594;11.368;2023-04-16T08:34:54;3.25;;;2.55;;
44270;SDS011;29963;44.594;11.368;2023-04-16T08:37:19;2.97;;;2.50;;
44270;SDS011;29963;44.594;11.368;2023-04-16T08:39:45;3.17;;;2.38;;
44270;SDS011;29963;44.594;11.368;2023-04-16T08:42:13;6.70;;;2.75;;
44270;SDS011;29963;44.594;11.368;2023-04-16T08:44:47;3.83;;;3.00;;
44270;SDS011;29963;44.594;11.368;2023-04-16T08:47:13;3.83;;;2.58;;
44270;SDS011;29963;44.594;11.368;2023-04-16T08:49:43;2.42;;;2.22;;
44270;SDS011;29963;44.594;11.368;2023-04-16T08:52:13;2.13;;;1.92;;
44270;SDS011;29963;44.594;11.368;2023-04-16T08:54:45;2.20;;;2.00;;
44270;SDS011;29963;44.594;11.368;2023-04-16T08:57:22;2.28;;;2.10;;
44270;SDS011;29963;44.594;11.368;2023-04-16T08:59:50;1.83;;;1.73;;
44270;SDS011;29963;44.594;11.368;2023-04-16T09:02:18;3.10;;;2.08;;
44270;SDS011;29963;44.594;11.368;2023-04-16T09:04:44;2.00;;;1.80;;
44270;SDS011;29963;44.594;11.368;2023-04-16T09:07:12;2.08;;;1.88;;
44270;SDS011;29963;44.594;11.368;2023-04-16T09:09:38;3.17;;;2.08;;
44270;SDS011;29963;44.594;11.368;2023-04-16T09:12:06;2.38;;;2.17;;
44270;SDS011;29963;44.594;11.368;2023-04-16T09:14:32;2.63;;;1.60;;
44270;SDS011;29963;44.594;11.368;2023-04-16T09:16:58;3.58;;;1.60;;
44270;SDS011;29963;44.594;11.368;2023-04-16T09:19:26;2.47;;;2.10;;
44270;SDS011;29963;44.594;11.368;2023-04-16T09:21:52;5.22;;;2.50;;
44270;SDS011;29963;44.594;11.368;2023-04-16T09:24:17;2.47;;;2.00;;
44270;SDS011;29963;44.594;11.368;2023-04-16T09:26:43;2.10;;;1.77;;
44270;SDS011;29963;44.594;11.368;2023-04-16T09:29:10;2.33;;;2.03;;
44270;SDS011;29963;44.594;11.368;2023-04-16T09:31:35;2.20;;;2.00;;
44270;SDS011;29963;44.594;11.368;2023-04-16T09:34:05;3.35;;;2.10;;
44270;SDS011;29963;44.594;11.368;2023-04-16T09:36:32;3.38;;;1.60;;
44270;SDS011;29963;44.594;11.368;2023-04-16T09:38:58;1.80;;;1.50;;
44270;SDS011;29963;44.594;11.368;2023-04-16T09:41:25;2.88;;;1.33;;
44270;SDS011;29963;44.594;11.368;2023-04-16T09:43:59;1.50;;;1.40;;
44270;SDS011;29963;44.594;11.368;2023-04-16T09:46:36;1.33;;;1.23;;
44270;SDS011;29963;44.594;11.368;2023-04-16T09:49:23;3.05;;;1.50;;
44270;SDS011;29963;44.594;11.368;2023-04-16T09:51:50;2.20;;;1.45;;
44270;SDS011;29963;44.594;11.368;2023-04-16T09:54:20;5.00;;;1.35;;
44270;SDS011;29963;44.594;11.368;2023-04-16T09:56:45;1.40;;;1.30;;
44270;SDS011;29963;44.594;11.368;2023-04-16T09:59:17;1.30;;;0.90;;
44270;SDS011;29963;44.594;11.368;2023-04-16T10:01:43;1.00;;;1.00;;
44270;SDS011;29963;44.594;11.368;2023-04-16T10:04:13;1.15;;;1.05;;
44270;SDS011;29963;44.594;11.368;2023-04-16T10:06:39;1.23;;;0.95;;
44270;SDS011;29963;44.594;11.368;2023-04-16T10:09:06;1.58;;;1.30;;
44270;SDS011;29963;44.594;11.368;2023-04-16T10:11:32;1.58;;;1.20;;
44270;SDS011;29963;44.594;11.368;2023-04-16T10:13:58;1.20;;;1.10;;
44270;SDS011;29963;44.594;11.368;2023-04-16T10:16:24;1.92;;;1.58;;
44270;SDS011;29963;44.594;11.368;2023-04-16T10:18:50;1.70;;;1.35;;
44270;SDS011;29963;44.594;11.368;2023-04-16T10:21:16;1.15;;;1.00;;
44270;SDS011;29963;44.594;11.368;2023-04-16T10:23:43;2.20;;;1.45;;
44270;SDS011;29963;44.594;11.368;2023-04-16T10:26:08;1.60;;;1.40;;
44270;SDS011;29963;44.594;11.368;2023-04-16T10:28:34;69.03;;;27.02;;
44270;SDS011;29963;44.594;11.368;2023-04-16T10:31:02;8.20;;;3.28;;
44270;SDS011;29963;44.594;11.368;2023-04-16T10:33:30;9.48;;;3.22;;
44270;SDS011;29963;44.594;11.368;2023-04-16T10:36:17;5.00;;;2.33;;
44270;SDS011;29963;44.594;11.368;2023-04-16T10:38:51;4.55;;;2.85;;
44270;SDS011;29963;44.594;11.368;2023-04-16T10:41:20;3.67;;;2.33;;
44270;SDS011;29963;44.594;11.368;2023-04-16T10:43:46;3.97;;;2.45;;
44270;SDS011;29963;44.594;11.368;2023-04-16T10:48:54;1.90;;;1.50;;
44270;SDS011;29963;44.594;11.368;2023-04-16T10:51:24;2.60;;;1.75;;
44270;SDS011;29963;44.594;11.368;2023-04-16T10:56:34;1.88;;;1.33;;
44270;SDS011;29963;44.594;11.368;2023-04-16T10:59:03;2.08;;;1.23;;
44270;SDS011;29963;44.594;11.368;2023-04-16T11:01:34;1.90;;;1.20;;
44270;SDS011;29963;44.594;11.368;2023-04-16T11:17:36;1.60;;;1.10;;
44270;SDS011;29963;44.594;11.368;2023-04-16T11:22:41;3.90;;;2.03;;
44270;SDS011;29963;44.594;11.368;2023-04-16T11:25:09;1.63;;;1.40;;
44270;SDS011;29963;44.594;11.368;2023-04-16T11:27:35;1.60;;;1.38;;
44270;SDS011;29963;44.594;11.368;2023-04-16T11:30:05;1.80;;;1.00;;
44270;SDS011;29963;44.594;11.368;2023-04-16T11:32:35;1.73;;;0.90;;
44270;SDS011;29963;44.594;11.368;2023-04-16T11:35:03;1.35;;;1.25;;
44270;SDS011;29963;44.594;11.368;2023-04-16T11:37:36;0.75;;;0.75;;
44270;SDS011;29963;44.594;11.368;2023-04-16T11:40:03;3.25;;;1.30;;
44270;SDS011;29963;44.594;11.368;2023-04-16T11:42:33;1.40;;;1.08;;
44270;SDS011;29963;44.594;11.368;2023-04-16T11:45:04;3.15;;;1.00;;
44270;SDS011;29963;44.594;11.368;2023-04-16T11:47:31;1.27;;;1.00;;
44270;SDS011;29963;44.594;11.368;2023-04-16T11:50:25;0.73;;;0.73;;
44270;SDS011;29963;44.594;11.368;2023-04-16T11:52:53;2.85;;;1.15;;
44270;SDS011;29963;44.594;11.368;2023-04-16T11:55:20;0.80;;;0.80;;
44270;SDS011;29963;44.594;11.368;2023-04-16T11:57:46;0.82;;;0.73;;
44270;SDS011;29963;44.594;11.368;2023-04-16T12:00:12;1.70;;;0.93;;
44270;SDS011;29963;44.594;11.368;2023-04-16T12:02:43;1.17;;;1.08;;
44270;SDS011;29963;44.594;11.368;2023-04-16T12:07:57;1.38;;;1.20;;
44270;SDS011;29963;44.594;11.368;2023-04-16T12:10:23;1.02;;;0.93;;
44270;SDS011;29963;44.594;11.368;2023-04-16T12:12:50;0.95;;;0.90;;
44270;SDS011;29963;44.594;11.368;2023-04-16T12:15:15;1.27;;;1.02;;
44270;SDS011;29963;44.594;11.368;2023-04-16T12:17:41;1.13;;;0.98;;
44270;SDS011;29963;44.594;11.368;2023-04-16T12:20:07;1.38;;;1.23;;
44270;SDS011;29963;44.594;11.368;2023-04-16T12:22:38;0.75;;;0.75;;
44270;SDS011;29963;44.594;11.368;2023-04-16T12:25:11;1.08;;;1.00;;
44270;SDS011;29963;44.594;11.368;2023-04-16T12:27:45;0.80;;;0.80;;
44270;SDS011;29963;44.594;11.368;2023-04-16T12:30:15;3.20;;;0.82;;
44270;SDS011;29963;44.594;11.368;2023-04-16T12:32:43;0.63;;;0.60;;
44270;SDS011;29963;44.594;11.368;2023-04-16T12:35:10;0.70;;;0.70;;
44270;SDS011;29963;44.594;11.368;2023-04-16T12:37:36;0.75;;;0.75;;
44270;SDS011;29963;44.594;11.368;2023-04-16T12:40:02;0.65;;;0.65;;
44270;SDS011;29963;44.594;11.368;2023-04-16T12:42:29;1.45;;;0.73;;
44270;SDS011;29963;44.594;11.368;2023-04-16T12:44:59;0.70;;;0.70;;
44270;SDS011;29963;44.594;11.368;2023-04-16T12:47:26;0.50;;;0.50;;
44270;SDS011;29963;44.594;11.368;2023-04-16T12:49:52;0.80;;;0.80;;
44270;SDS011;29963;44.594;11.368;2023-04-16T12:52:17;0.60;;;0.60;;
44270;SDS011;29963;44.594;11.368;2023-04-16T12:54:43;0.73;;;0.70;;
44270;SDS011;29963;44.594;11.368;2023-04-16T12:57:08;0.70;;;0.70;;
44270;SDS011;29963;44.594;11.368;2023-04-16T12:59:35;1.23;;;0.90;;
44270;SDS011;29963;44.594;11.368;2023-04-16T13:02:01;1.85;;;0.88;;
44270;SDS011;29963;44.594;11.368;2023-04-16T13:04:26;1.50;;;1.20;;
44270;SDS011;29963;44.594;11.368;2023-04-16T13:06:52;0.65;;;0.65;;
44270;SDS011;29963;44.594;11.368;2023-04-16T13:09:18;3.83;;;0.82;;
44270;SDS011;29963;44.594;11.368;2023-04-16T13:11:44;0.70;;;0.70;;
44270;SDS011;29963;44.594;11.368;2023-04-16T13:14:09;1.75;;;1.00;;
44270;SDS011;29963;44.594;11.368;2023-04-16T13:16:35;0.70;;;0.70;;
44270;SDS011;29963;44.594;11.368;2023-04-16T13:19:02;1.52;;;0.98;;
44270;SDS011;29963;44.594;11.368;2023-04-16T13:21:28;0.80;;;0.80;;
44270;SDS011;29963;44.594;11.368;2023-04-16T13:23:54;0.77;;;0.77;;
44270;SDS011;29963;44.594;11.368;2023-04-16T13:26:19;0.60;;;0.60;;
44270;SDS011;29963;44.594;11.368;2023-04-16T13:28:46;0.75;;;0.75;;
44270;SDS011;29963;44.594;11.368;2023-04-16T13:31:11;0.65;;;0.65;;
44270;SDS011;29963;44.594;11.368;2023-04-16T13:33:38;1.05;;;0.90;;
44270;SDS011;29963;44.594;11.368;2023-04-16T13:36:03;0.93;;;0.80;;
44270;SDS011;29963;44.594;11.368;2023-04-16T13:38:30;1.00;;;0.80;;
44270;SDS011;29963;44.594;11.368;2023-04-16T13:40:55;0.50;;;0.50;;
44270;SDS011;29963;44.594;11.368;2023-04-16T13:43:21;0.65;;;0.65;;
44270;SDS011;29963;44.594;11.368;2023-04-16T13:45:46;0.50;;;0.50;;
44270;SDS011;29963;44.594;11.368;2023-04-16T13:48:12;0.50;;;0.50;;
44270;SDS011;29963;44.594;11.368;2023-04-16T13:50:38;1.58;;;0.60;;
44270;SDS011;29963;44.594;11.368;2023-04-16T13:53:03;0.68;;;0.60;;
44270;SDS011;29963;44.594;11.368;2023-04-16T13:55:30;3.65;;;0.60;;
44270;SDS011;29963;44.594;11.368;2023-04-16T13:57:56;1.90;;;1.10;;
44270;SDS011;29963;44.594;11.368;2023-04-16T14:00:21;1.30;;;0.90;;
44270;SDS011;29963;44.594;11.368;2023-04-16T14:02:48;1.20;;;1.10;;
44270;SDS011;29963;44.594;11.368;2023-04-16T14:05:14;1.13;;;0.90;;
44270;SDS011;29963;44.594;11.368;2023-04-16T14:07:40;0.57;;;0.50;;
44270;SDS011;29963;44.594;11.368;2023-04-16T14:10:05;0.98;;;0.98;;
44270;SDS011;29963;44.594;11.368;2023-04-16T14:12:32;1.02;;;0.80;;
44270;SDS011;29963;44.594;11.368;2023-04-16T14:14:58;0.52;;;0.52;;
44270;SDS011;29963;44.594;11.368;2023-04-16T14:17:24;0.85;;;0.80;;
44270;SDS011;29963;44.594;11.368;2023-04-16T14:19:49;0.93;;;0.70;;
44270;SDS011;29963;44.594;11.368;2023-04-16T14:22:15;0.75;;;0.70;;
44270;SDS011;29963;44.594;11.368;2023-04-16T14:24:42;1.20;;;1.10;;
44270;SDS011;29963;44.594;11.368;2023-04-16T14:27:08;0.50;;;0.50;;
44270;SDS011;29963;44.594;11.368;2023-04-16T14:29:33;0.60;;;0.60;;
44270;SDS011;29963;44.594;11.368;2023-04-16T14:32:00;0.90;;;0.68;;
44270;SDS011;29963;44.594;11.368;2023-04-16T14:34:26;0.93;;;0.85;;
44270;SDS011;29963;44.594;11.368;2023-04-16T14:36:51;0.65;;;0.65;;
44270;SDS011;29963;44.594;11.368;2023-04-16T14:39:17;0.82;;;0.82;;
44270;SDS011;29963;44.594;11.368;2023-04-16T14:41:42;1.17;;;0.50;;
44270;SDS011;29963;44.594;11.368;2023-04-16T14:44:08;0.50;;;0.50;;
44270;SDS011;29963;44.594;11.368;2023-04-16T14:46:33;0.68;;;0.68;;
44270;SDS011;29963;44.594;11.368;2023-04-16T14:49:00;0.70;;;0.70;;
44270;SDS011;29963;44.594;11.368;2023-04-16T14:51:25;0.47;;;0.40;;
44270;SDS011;29963;44.594;11.368;2023-04-16T14:53:51;0.70;;;0.57;;